sensor_id;sensor_type;location;lat;lon;timestamp;pressure;altitude;pressure_sealevel;temperature
20289;BMP180;10303;51.960;8.372;2023-07-13T00:02:24;100340.00;;;20.70
20289;BMP180;10303;51.960;8.372;2023-07-13T00:04:52;100348.00;;;20.60
20289;BMP180;10303;51.960;8.372;2023-07-13T00:07:18;100343.00;;;20.60
20289;BMP180;10303;51.960;8.372;2023-07-13T00:09:47;100358.00;;;20.50
20289;BMP180;10303;51.960;8.372;2023-07-13T00:12:30;100339.00;;;20.40
20289;BMP180;10303;51.960;8.372;2023-07-13T00:14:58;100350.00;;;20.40
20289;BMP180;10303;51.960;8.372;2023-07-13T00:17:26;100352.00;;;20.40
20289;BMP180;10303;51.960;8.372;2023-07-13T00:19:54;100344.00;;;20.40
20289;BMP180;10303;51.960;8.372;2023-07-13T00:22:22;100352.00;;;20.40
20289;BMP180;10303;51.960;8.372;2023-07-13T00:24:49;100352.00;;;20.30
20289;BMP180;10303;51.960;8.372;2023-07-13T00:27:18;100354.00;;;20.30
20289;BMP180;10303;51.960;8.372;2023-07-13T00:29:44;100354.00;;;20.30
20289;BMP180;10303;51.960;8.372;2023-07-13T00:32:11;100357.00;;;20.20
20289;BMP180;10303;51.960;8.372;2023-07-13T00:34:38;100358.00;;;20.20
20289;BMP180;10303;51.960;8.372;2023-07-13T00:37:06;100355.00;;;20.20
20289;BMP180;10303;51.960;8.372;2023-07-13T00:39:35;100353.00;;;20.20
20289;BMP180;10303;51.960;8.372;2023-07-13T00:42:03;100358.00;;;20.20
20289;BMP180;10303;51.960;8.372;2023-07-13T00:44:30;100351.00;;;20.20
20289;BMP180;10303;51.960;8.372;2023-07-13T00:46:56;100361.00;;;20.20
20289;BMP180;10303;51.960;8.372;2023-07-13T00:49:27;100356.00;;;20.20
20289;BMP180;10303;51.960;8.372;2023-07-13T00:52:07;100360.00;;;20.10
20289;BMP180;10303;51.960;8.372;2023-07-13T00:54:44;100356.00;;;20.10
20289;BMP180;10303;51.960;8.372;2023-07-13T00:57:15;100358.00;;;20.10
20289;BMP180;10303;51.960;8.372;2023-07-13T00:59:50;100358.00;;;20.10
20289;BMP180;10303;51.960;8.372;2023-07-13T01:02:18;100357.00;;;20.10
20289;BMP180;10303;51.960;8.372;2023-07-13T01:04:44;100357.00;;;20.10
20289;BMP180;10303;51.960;8.372;2023-07-13T01:07:11;100356.00;;;20.10
20289;BMP180;10303;51.960;8.372;2023-07-13T01:09:38;100360.00;;;20.00
20289;BMP180;10303;51.960;8.372;2023-07-13T01:12:04;100353.00;;;20.00
20289;BMP180;10303;51.960;8.372;2023-07-13T01:14:31;100349.00;;;20.00
20289;BMP180;10303;51.960;8.372;2023-07-13T01:16:57;100350.00;;;20.10
20289;BMP180;10303;51.960;8.372;2023-07-13T01:19:35;100356.00;;;20.00
20289;BMP180;10303;51.960;8.372;2023-07-13T01:22:12;100356.00;;;20.00
20289;BMP180;10303;51.960;8.372;2023-07-13T01:24:42;100359.00;;;20.00
20289;BMP180;10303;51.960;8.372;2023-07-13T01:27:12;100352.00;;;20.00
20289;BMP180;10303;51.960;8.372;2023-07-13T01:29:43;100358.00;;;20.00
20289;BMP180;10303;51.960;8.372;2023-07-13T01:32:13;100360.00;;;20.00
20289;BMP180;10303;51.960;8.372;2023-07-13T01:34:39;100349.00;;;20.00
20289;BMP180;10303;51.960;8.372;2023-07-13T01:37:09;100351.00;;;20.00
20289;BMP180;10303;51.960;8.372;2023-07-13T01:39:35;100352.00;;;20.10
20289;BMP180;10303;51.960;8.372;2023-07-13T01:42:02;100347.00;;;20.10
20289;BMP180;10303;51.960;8.372;2023-07-13T01:44:28;100352.00;;;20.10
20289;BMP180;10303;51.960;8.372;2023-07-13T01:46:55;100349.00;;;20.20
20289;BMP180;10303;51.960;8.372;2023-07-13T01:49:21;100350.00;;;20.20
20289;BMP180;10303;51.960;8.372;2023-07-13T01:51:47;100344.00;;;20.20
20289;BMP180;10303;51.960;8.372;2023-07-13T01:54:13;100355.00;;;20.20
20289;BMP180;10303;51.960;8.372;2023-07-13T01:56:39;100357.00;;;20.20
20289;BMP180;10303;51.960;8.372;2023-07-13T01:59:05;100357.00;;;20.20
20289;BMP180;10303;51.960;8.372;2023-07-13T02:01:31;100353.00;;;20.30
20289;BMP180;10303;51.960;8.372;2023-07-13T02:03:57;100356.00;;;20.30
20289;BMP180;10303;51.960;8.372;2023-07-13T02:06:23;100353.00;;;20.30
20289;BMP180;10303;51.960;8.372;2023-07-13T02:08:49;100362.00;;;20.30
20289;BMP180;10303;51.960;8.372;2023-07-13T02:11:15;100355.00;;;20.30
20289;BMP180;10303;51.960;8.372;2023-07-13T02:13:41;100350.00;;;20.30
20289;BMP180;10303;51.960;8.372;2023-07-13T02:16:07;100357.00;;;20.30
20289;BMP180;10303;51.960;8.372;2023-07-13T02:18:33;100362.00;;;20.20
20289;BMP180;10303;51.960;8.372;2023-07-13T02:20:59;100371.00;;;20.20
20289;BMP180;10303;51.960;8.372;2023-07-13T02:23:25;100362.00;;;20.20
20289;BMP180;10303;51.960;8.372;2023-07-13T02:25:56;100356.00;;;20.20
20289;BMP180;10303;51.960;8.372;2023-07-13T02:28:22;100363.00;;;20.20
20289;BMP180;10303;51.960;8.372;2023-07-13T02:30:49;100367.00;;;20.10
20289;BMP180;10303;51.960;8.372;2023-07-13T02:33:15;100361.00;;;20.10
20289;BMP180;10303;51.960;8.372;2023-07-13T02:35:41;100372.00;;;20.10
20289;BMP180;10303;51.960;8.372;2023-07-13T02:38:07;100361.00;;;20.00
20289;BMP180;10303;51.960;8.372;2023-07-13T02:40:34;100361.00;;;20.00
20289;BMP180;10303;51.960;8.372;2023-07-13T02:43:02;100359.00;;;20.00
20289;BMP180;10303;51.960;8.372;2023-07-13T02:45:31;100363.00;;;19.90
20289;BMP180;10303;51.960;8.372;2023-07-13T02:47:58;100359.00;;;19.90
20289;BMP180;10303;51.960;8.372;2023-07-13T02:50:24;100362.00;;;19.90
20289;BMP180;10303;51.960;8.372;2023-07-13T02:52:50;100365.00;;;19.80
20289;BMP180;10303;51.960;8.372;2023-07-13T02:55:16;100368.00;;;19.80
20289;BMP180;10303;51.960;8.372;2023-07-13T02:57:42;100361.00;;;19.80
20289;BMP180;10303;51.960;8.372;2023-07-13T03:00:09;100372.00;;;19.70
20289;BMP180;10303;51.960;8.372;2023-07-13T03:02:35;100377.00;;;19.70
20289;BMP180;10303;51.960;8.372;2023-07-13T03:05:04;100378.00;;;19.70
20289;BMP180;10303;51.960;8.372;2023-07-13T03:07:31;100373.00;;;19.70
20289;BMP180;10303;51.960;8.372;2023-07-13T03:09:58;100377.00;;;19.60
20289;BMP180;10303;51.960;8.372;2023-07-13T03:12:32;100376.00;;;19.60
20289;BMP180;10303;51.960;8.372;2023-07-13T03:14:59;100380.00;;;19.60
20289;BMP180;10303;51.960;8.372;2023-07-13T03:17:26;100379.00;;;19.50
20289;BMP180;10303;51.960;8.372;2023-07-13T03:19:53;100374.00;;;19.50
20289;BMP180;10303;51.960;8.372;2023-07-13T03:22:20;100375.00;;;19.40
20289;BMP180;10303;51.960;8.372;2023-07-13T03:24:46;100371.00;;;19.40
20289;BMP180;10303;51.960;8.372;2023-07-13T03:27:13;100371.00;;;19.40
20289;BMP180;10303;51.960;8.372;2023-07-13T03:29:41;100379.00;;;19.40
20289;BMP180;10303;51.960;8.372;2023-07-13T03:32:08;100378.00;;;19.30
20289;BMP180;10303;51.960;8.372;2023-07-13T03:34:34;100377.00;;;19.30
20289;BMP180;10303;51.960;8.372;2023-07-13T03:37:01;100377.00;;;19.30
20289;BMP180;10303;51.960;8.372;2023-07-13T03:39:27;100384.00;;;19.30
20289;BMP180;10303;51.960;8.372;2023-07-13T03:41:55;100383.00;;;19.30
20289;BMP180;10303;51.960;8.372;2023-07-13T03:44:22;100388.00;;;19.20
20289;BMP180;10303;51.960;8.372;2023-07-13T03:46:52;100392.00;;;19.20
20289;BMP180;10303;51.960;8.372;2023-07-13T03:49:18;100394.00;;;19.20
20289;BMP180;10303;51.960;8.372;2023-07-13T03:51:44;100399.00;;;19.20
20289;BMP180;10303;51.960;8.372;2023-07-13T03:54:10;100404.00;;;19.10
20289;BMP180;10303;51.960;8.372;2023-07-13T03:56:37;100398.00;;;19.10
20289;BMP180;10303;51.960;8.372;2023-07-13T03:59:05;100393.00;;;19.10
20289;BMP180;10303;51.960;8.372;2023-07-13T04:01:31;100396.00;;;19.10
20289;BMP180;10303;51.960;8.372;2023-07-13T04:03:58;100400.00;;;19.10
20289;BMP180;10303;51.960;8.372;2023-07-13T04:06:28;100408.00;;;19.00
20289;BMP180;10303;51.960;8.372;2023-07-13T04:08:58;100405.00;;;19.00
20289;BMP180;10303;51.960;8.372;2023-07-13T04:11:28;100404.00;;;19.00
20289;BMP180;10303;51.960;8.372;2023-07-13T04:13:55;100407.00;;;19.00
20289;BMP180;10303;51.960;8.372;2023-07-13T04:16:22;100408.00;;;19.00
20289;BMP180;10303;51.960;8.372;2023-07-13T04:18:49;100410.00;;;19.00
20289;BMP180;10303;51.960;8.372;2023-07-13T04:21:16;100418.00;;;19.00
20289;BMP180;10303;51.960;8.372;2023-07-13T04:23:42;100409.00;;;18.90
20289;BMP180;10303;51.960;8.372;2023-07-13T04:26:09;100420.00;;;18.90
20289;BMP180;10303;51.960;8.372;2023-07-13T04:28:35;100417.00;;;18.90
20289;BMP180;10303;51.960;8.372;2023-07-13T04:31:01;100428.00;;;18.90
20289;BMP180;10303;51.960;8.372;2023-07-13T04:33:28;100424.00;;;18.90
20289;BMP180;10303;51.960;8.372;2023-07-13T04:35:55;100420.00;;;18.90
20289;BMP180;10303;51.960;8.372;2023-07-13T04:38:28;100425.00;;;18.90
20289;BMP180;10303;51.960;8.372;2023-07-13T04:41:03;100429.00;;;18.90
20289;BMP180;10303;51.960;8.372;2023-07-13T04:43:31;100435.00;;;19.00
20289;BMP180;10303;51.960;8.372;2023-07-13T04:46:06;100430.00;;;18.90
20289;BMP180;10303;51.960;8.372;2023-07-13T04:48:34;100428.00;;;19.00
20289;BMP180;10303;51.960;8.372;2023-07-13T04:51:00;100430.00;;;19.00
20289;BMP180;10303;51.960;8.372;2023-07-13T04:53:28;100423.00;;;19.00
20289;BMP180;10303;51.960;8.372;2023-07-13T04:55:54;100428.00;;;19.00
20289;BMP180;10303;51.960;8.372;2023-07-13T04:58:21;100427.00;;;19.00
20289;BMP180;10303;51.960;8.372;2023-07-13T05:00:49;100432.00;;;19.10
20289;BMP180;10303;51.960;8.372;2023-07-13T05:03:15;100425.00;;;19.10
20289;BMP180;10303;51.960;8.372;2023-07-13T05:05:41;100431.00;;;19.10
20289;BMP180;10303;51.960;8.372;2023-07-13T05:08:07;100431.00;;;19.10
20289;BMP180;10303;51.960;8.372;2023-07-13T05:10:34;100434.00;;;19.20
20289;BMP180;10303;51.960;8.372;2023-07-13T05:13:00;100434.00;;;19.20
20289;BMP180;10303;51.960;8.372;2023-07-13T05:15:27;100431.00;;;19.20
20289;BMP180;10303;51.960;8.372;2023-07-13T05:17:52;100427.00;;;19.20
20289;BMP180;10303;51.960;8.372;2023-07-13T05:20:19;100434.00;;;19.20
20289;BMP180;10303;51.960;8.372;2023-07-13T05:22:45;100437.00;;;19.20
20289;BMP180;10303;51.960;8.372;2023-07-13T05:25:14;100440.00;;;19.20
20289;BMP180;10303;51.960;8.372;2023-07-13T05:27:40;100437.00;;;19.30
20289;BMP180;10303;51.960;8.372;2023-07-13T05:30:07;100439.00;;;19.30
20289;BMP180;10303;51.960;8.372;2023-07-13T05:32:36;100445.00;;;19.30
20289;BMP180;10303;51.960;8.372;2023-07-13T05:35:02;100452.00;;;19.40
20289;BMP180;10303;51.960;8.372;2023-07-13T05:37:28;100462.00;;;19.40
20289;BMP180;10303;51.960;8.372;2023-07-13T05:39:54;100448.00;;;19.40
20289;BMP180;10303;51.960;8.372;2023-07-13T05:42:20;100462.00;;;19.40
20289;BMP180;10303;51.960;8.372;2023-07-13T05:44:46;100460.00;;;19.50
20289;BMP180;10303;51.960;8.372;2023-07-13T05:47:12;100459.00;;;19.50
20289;BMP180;10303;51.960;8.372;2023-07-13T05:49:40;100459.00;;;19.60
20289;BMP180;10303;51.960;8.372;2023-07-13T05:52:06;100455.00;;;19.60
20289;BMP180;10303;51.960;8.372;2023-07-13T05:54:32;100471.00;;;19.60
20289;BMP180;10303;51.960;8.372;2023-07-13T05:56:58;100470.00;;;19.60
20289;BMP180;10303;51.960;8.372;2023-07-13T05:59:24;100470.00;;;19.70
20289;BMP180;10303;51.960;8.372;2023-07-13T06:01:51;100473.00;;;19.70
20289;BMP180;10303;51.960;8.372;2023-07-13T06:04:19;100484.00;;;19.80
20289;BMP180;10303;51.960;8.372;2023-07-13T06:06:46;100476.00;;;19.80
20289;BMP180;10303;51.960;8.372;2023-07-13T06:09:12;100485.00;;;19.80
20289;BMP180;10303;51.960;8.372;2023-07-13T06:11:38;100480.00;;;19.90
20289;BMP180;10303;51.960;8.372;2023-07-13T06:14:03;100487.00;;;19.90
20289;BMP180;10303;51.960;8.372;2023-07-13T06:16:29;100475.00;;;19.90
20289;BMP180;10303;51.960;8.372;2023-07-13T06:18:55;100480.00;;;20.00
20289;BMP180;10303;51.960;8.372;2023-07-13T06:21:23;100472.00;;;20.00
20289;BMP180;10303;51.960;8.372;2023-07-13T06:23:51;100476.00;;;20.00
20289;BMP180;10303;51.960;8.372;2023-07-13T06:26:19;100482.00;;;20.10
20289;BMP180;10303;51.960;8.372;2023-07-13T06:28:45;100484.00;;;20.20
20289;BMP180;10303;51.960;8.372;2023-07-13T06:31:13;100488.00;;;20.20
20289;BMP180;10303;51.960;8.372;2023-07-13T06:33:39;100495.00;;;20.20
20289;BMP180;10303;51.960;8.372;2023-07-13T06:36:07;100486.00;;;20.20
20289;BMP180;10303;51.960;8.372;2023-07-13T06:38:34;100486.00;;;20.30
20289;BMP180;10303;51.960;8.372;2023-07-13T06:41:00;100498.00;;;20.30
20289;BMP180;10303;51.960;8.372;2023-07-13T06:43:26;100494.00;;;20.30
20289;BMP180;10303;51.960;8.372;2023-07-13T06:45:55;100491.00;;;20.30
20289;BMP180;10303;51.960;8.372;2023-07-13T06:48:21;100488.00;;;20.40
20289;BMP180;10303;51.960;8.372;2023-07-13T06:50:49;100479.00;;;20.40
20289;BMP180;10303;51.960;8.372;2023-07-13T06:53:19;100484.00;;;20.40
20289;BMP180;10303;51.960;8.372;2023-07-13T06:55:45;100489.00;;;20.50
20289;BMP180;10303;51.960;8.372;2023-07-13T06:58:12;100503.00;;;20.60
20289;BMP180;10303;51.960;8.372;2023-07-13T07:00:38;100496.00;;;20.60
20289;BMP180;10303;51.960;8.372;2023-07-13T07:03:06;100491.00;;;20.70
20289;BMP180;10303;51.960;8.372;2023-07-13T07:05:32;100497.00;;;20.70
20289;BMP180;10303;51.960;8.372;2023-07-13T07:07:58;100499.00;;;20.70
20289;BMP180;10303;51.960;8.372;2023-07-13T07:10:25;100496.00;;;20.80
20289;BMP180;10303;51.960;8.372;2023-07-13T07:12:51;100510.00;;;20.80
20289;BMP180;10303;51.960;8.372;2023-07-13T07:15:18;100499.00;;;20.80
20289;BMP180;10303;51.960;8.372;2023-07-13T07:17:44;100506.00;;;20.90
20289;BMP180;10303;51.960;8.372;2023-07-13T07:20:11;100501.00;;;21.00
20289;BMP180;10303;51.960;8.372;2023-07-13T07:22:37;100501.00;;;21.00
20289;BMP180;10303;51.960;8.372;2023-07-13T07:25:03;100498.00;;;21.10
20289;BMP180;10303;51.960;8.372;2023-07-13T07:27:29;100503.00;;;21.20
20289;BMP180;10303;51.960;8.372;2023-07-13T07:29:55;100508.00;;;21.30
20289;BMP180;10303;51.960;8.372;2023-07-13T07:32:23;100502.00;;;21.30
20289;BMP180;10303;51.960;8.372;2023-07-13T07:34:49;100501.00;;;21.40
20289;BMP180;10303;51.960;8.372;2023-07-13T07:37:16;100505.00;;;21.60
20289;BMP180;10303;51.960;8.372;2023-07-13T07:39:45;100503.00;;;21.70
20289;BMP180;10303;51.960;8.372;2023-07-13T07:42:11;100517.00;;;21.80
20289;BMP180;10303;51.960;8.372;2023-07-13T07:44:40;100515.00;;;21.80
20289;BMP180;10303;51.960;8.372;2023-07-13T07:47:06;100511.00;;;21.80
20289;BMP180;10303;51.960;8.372;2023-07-13T07:49:33;100506.00;;;21.80
20289;BMP180;10303;51.960;8.372;2023-07-13T07:51:59;100513.00;;;21.80
20289;BMP180;10303;51.960;8.372;2023-07-13T07:54:25;100514.00;;;21.80
20289;BMP180;10303;51.960;8.372;2023-07-13T07:56:50;100518.00;;;21.90
20289;BMP180;10303;51.960;8.372;2023-07-13T07:59:17;100517.00;;;21.90
20289;BMP180;10303;51.960;8.372;2023-07-13T08:01:42;100508.00;;;22.00
20289;BMP180;10303;51.960;8.372;2023-07-13T08:04:09;100511.00;;;22.10
20289;BMP180;10303;51.960;8.372;2023-07-13T08:06:35;100510.00;;;22.20
20289;BMP180;10303;51.960;8.372;2023-07-13T08:09:01;100515.00;;;22.40
20289;BMP180;10303;51.960;8.372;2023-07-13T08:11:28;100509.00;;;22.50
20289;BMP180;10303;51.960;8.372;2023-07-13T08:13:54;100515.00;;;22.60
20289;BMP180;10303;51.960;8.372;2023-07-13T08:16:23;100513.00;;;22.60
20289;BMP180;10303;51.960;8.372;2023-07-13T08:18:50;100521.00;;;22.70
20289;BMP180;10303;51.960;8.372;2023-07-13T08:21:16;100518.00;;;22.90
20289;BMP180;10303;51.960;8.372;2023-07-13T08:23:43;100522.00;;;22.90
20289;BMP180;10303;51.960;8.372;2023-07-13T08:26:09;100521.00;;;22.90
20289;BMP180;10303;51.960;8.372;2023-07-13T08:28:35;100523.00;;;23.00
20289;BMP180;10303;51.960;8.372;2023-07-13T08:31:05;100514.00;;;23.10
20289;BMP180;10303;51.960;8.372;2023-07-13T08:33:37;100519.00;;;23.10
20289;BMP180;10303;51.960;8.372;2023-07-13T08:36:04;100520.00;;;23.20
20289;BMP180;10303;51.960;8.372;2023-07-13T08:38:32;100523.00;;;23.30
20289;BMP180;10303;51.960;8.372;2023-07-13T08:41:02;100530.00;;;23.40
20289;BMP180;10303;51.960;8.372;2023-07-13T08:43:36;100528.00;;;23.50
20289;BMP180;10303;51.960;8.372;2023-07-13T08:46:26;100528.00;;;23.60
20289;BMP180;10303;51.960;8.372;2023-07-13T08:49:17;100525.00;;;23.80
20289;BMP180;10303;51.960;8.372;2023-07-13T08:51:54;100527.00;;;24.00
20289;BMP180;10303;51.960;8.372;2023-07-13T08:55:02;100529.00;;;24.10
20289;BMP180;10303;51.960;8.372;2023-07-13T08:57:34;100527.00;;;24.30
20289;BMP180;10303;51.960;8.372;2023-07-13T09:00:00;100523.00;;;24.40
20289;BMP180;10303;51.960;8.372;2023-07-13T09:02:59;100526.00;;;24.30
20289;BMP180;10303;51.960;8.372;2023-07-13T09:05:40;100531.00;;;24.40
20289;BMP180;10303;51.960;8.372;2023-07-13T09:08:32;100522.00;;;24.40
20289;BMP180;10303;51.960;8.372;2023-07-13T09:14:26;100529.00;;;24.60
20289;BMP180;10303;51.960;8.372;2023-07-13T09:16:57;100525.00;;;24.80
20289;BMP180;10303;51.960;8.372;2023-07-13T09:19:30;100525.00;;;24.90
20289;BMP180;10303;51.960;8.372;2023-07-13T09:22:05;100521.00;;;25.00
20289;BMP180;10303;51.960;8.372;2023-07-13T09:24:55;100515.00;;;25.10
20289;BMP180;10303;51.960;8.372;2023-07-13T09:27:39;100515.00;;;25.10
20289;BMP180;10303;51.960;8.372;2023-07-13T09:32:44;100511.00;;;25.20
20289;BMP180;10303;51.960;8.372;2023-07-13T09:35:21;100511.00;;;25.30
20289;BMP180;10303;51.960;8.372;2023-07-13T09:37:49;100512.00;;;25.50
20289;BMP180;10303;51.960;8.372;2023-07-13T09:40:36;100514.00;;;25.70
20289;BMP180;10303;51.960;8.372;2023-07-13T09:43:08;100522.00;;;25.80
20289;BMP180;10303;51.960;8.372;2023-07-13T09:45:37;100531.00;;;25.90
20289;BMP180;10303;51.960;8.372;2023-07-13T09:48:12;100521.00;;;25.90
20289;BMP180;10303;51.960;8.372;2023-07-13T09:50:40;100530.00;;;26.00
20289;BMP180;10303;51.960;8.372;2023-07-13T09:53:19;100525.00;;;26.00
20289;BMP180;10303;51.960;8.372;2023-07-13T09:55:48;100518.00;;;26.00
20289;BMP180;10303;51.960;8.372;2023-07-13T09:58:20;100531.00;;;25.90
20289;BMP180;10303;51.960;8.372;2023-07-13T10:01:01;100528.00;;;25.80
20289;BMP180;10303;51.960;8.372;2023-07-13T10:03:34;100528.00;;;25.80
20289;BMP180;10303;51.960;8.372;2023-07-13T10:06:16;100528.00;;;25.80
20289;BMP180;10303;51.960;8.372;2023-07-13T10:08:45;100528.00;;;26.00
20289;BMP180;10303;51.960;8.372;2023-07-13T10:11:22;100528.00;;;26.00
20289;BMP180;10303;51.960;8.372;2023-07-13T10:14:16;100531.00;;;25.90
20289;BMP180;10303;51.960;8.372;2023-07-13T10:16:45;100537.00;;;26.10
20289;BMP180;10303;51.960;8.372;2023-07-13T10:19:27;100538.00;;;26.20
20289;BMP180;10303;51.960;8.372;2023-07-13T10:22:00;100542.00;;;26.40
20289;BMP180;10303;51.960;8.372;2023-07-13T10:24:32;100543.00;;;26.40
20289;BMP180;10303;51.960;8.372;2023-07-13T10:27:17;100541.00;;;26.50
20289;BMP180;10303;51.960;8.372;2023-07-13T10:29:50;100549.00;;;26.50
20289;BMP180;10303;51.960;8.372;2023-07-13T10:32:21;100546.00;;;26.60
20289;BMP180;10303;51.960;8.372;2023-07-13T10:34:49;100544.00;;;26.60
20289;BMP180;10303;51.960;8.372;2023-07-13T10:37:27;100554.00;;;26.40
20289;BMP180;10303;51.960;8.372;2023-07-13T10:39:57;100544.00;;;26.40
20289;BMP180;10303;51.960;8.372;2023-07-13T10:42:42;100541.00;;;26.30
20289;BMP180;10303;51.960;8.372;2023-07-13T10:45:19;100549.00;;;26.20
20289;BMP180;10303;51.960;8.372;2023-07-13T10:47:47;100537.00;;;26.20
20289;BMP180;10303;51.960;8.372;2023-07-13T10:50:23;100536.00;;;26.10
20289;BMP180;10303;51.960;8.372;2023-07-13T10:53:01;100554.00;;;26.00
20289;BMP180;10303;51.960;8.372;2023-07-13T10:58:23;100551.00;;;25.90
20289;BMP180;10303;51.960;8.372;2023-07-13T11:01:12;100554.00;;;26.00
20289;BMP180;10303;51.960;8.372;2023-07-13T11:03:54;100557.00;;;26.00
20289;BMP180;10303;51.960;8.372;2023-07-13T11:09:18;100556.00;;;25.90
20289;BMP180;10303;51.960;8.372;2023-07-13T11:11:45;100564.00;;;25.90
20289;BMP180;10303;51.960;8.372;2023-07-13T11:14:30;100552.00;;;25.90
20289;BMP180;10303;51.960;8.372;2023-07-13T11:25:39;100553.00;;;26.20
20289;BMP180;10303;51.960;8.372;2023-07-13T11:33:47;100555.00;;;26.10
20289;BMP180;10303;51.960;8.372;2023-07-13T11:36:18;100549.00;;;26.10
20289;BMP180;10303;51.960;8.372;2023-07-13T11:39:02;100538.00;;;26.10
20289;BMP180;10303;51.960;8.372;2023-07-13T11:41:43;100532.00;;;26.20
20289;BMP180;10303;51.960;8.372;2023-07-13T11:44:21;100551.00;;;26.20
20289;BMP180;10303;51.960;8.372;2023-07-13T11:46:53;100546.00;;;26.10
20289;BMP180;10303;51.960;8.372;2023-07-13T11:49:24;100542.00;;;26.10
20289;BMP180;10303;51.960;8.372;2023-07-13T11:51:53;100546.00;;;26.20
20289;BMP180;10303;51.960;8.372;2023-07-13T11:59:52;100553.00;;;26.40
20289;BMP180;10303;51.960;8.372;2023-07-13T12:02:33;100557.00;;;26.40
20289;BMP180;10303;51.960;8.372;2023-07-13T12:05:04;100562.00;;;26.40
20289;BMP180;10303;51.960;8.372;2023-07-13T12:07:32;100556.00;;;26.40
20289;BMP180;10303;51.960;8.372;2023-07-13T12:10:27;100544.00;;;26.50
20289;BMP180;10303;51.960;8.372;2023-07-13T12:13:05;100548.00;;;26.70
20289;BMP180;10303;51.960;8.372;2023-07-13T12:15:43;100548.00;;;26.90
20289;BMP180;10303;51.960;8.372;2023-07-13T12:18:21;100549.00;;;27.10
20289;BMP180;10303;51.960;8.372;2023-07-13T12:20:50;100547.00;;;27.30
20289;BMP180;10303;51.960;8.372;2023-07-13T12:23:34;100545.00;;;27.40
20289;BMP180;10303;51.960;8.372;2023-07-13T12:26:06;100541.00;;;27.50
20289;BMP180;10303;51.960;8.372;2023-07-13T12:28:37;100552.00;;;27.70
20289;BMP180;10303;51.960;8.372;2023-07-13T12:31:08;100551.00;;;27.80
20289;BMP180;10303;51.960;8.372;2023-07-13T12:33:45;100543.00;;;28.00
20289;BMP180;10303;51.960;8.372;2023-07-13T12:36:12;100545.00;;;28.00
20289;BMP180;10303;51.960;8.372;2023-07-13T12:38:38;100548.00;;;28.10
20289;BMP180;10303;51.960;8.372;2023-07-13T12:41:09;100553.00;;;28.30
20289;BMP180;10303;51.960;8.372;2023-07-13T12:43:37;100544.00;;;28.40
20289;BMP180;10303;51.960;8.372;2023-07-13T12:48:43;100548.00;;;28.30
20289;BMP180;10303;51.960;8.372;2023-07-13T12:51:13;100540.00;;;28.20
20289;BMP180;10303;51.960;8.372;2023-07-13T12:53:43;100551.00;;;28.00
20289;BMP180;10303;51.960;8.372;2023-07-13T12:56:22;100548.00;;;27.90
20289;BMP180;10303;51.960;8.372;2023-07-13T12:58:51;100533.00;;;27.90
20289;BMP180;10303;51.960;8.372;2023-07-13T13:01:22;100491.00;;;27.90
20289;BMP180;10303;51.960;8.372;2023-07-13T13:03:53;100543.00;;;27.90
20289;BMP180;10303;51.960;8.372;2023-07-13T13:06:28;100547.00;;;27.90
20289;BMP180;10303;51.960;8.372;2023-07-13T13:08:57;100542.00;;;28.00
20289;BMP180;10303;51.960;8.372;2023-07-13T13:11:29;100549.00;;;28.00
20289;BMP180;10303;51.960;8.372;2023-07-13T13:13:56;100550.00;;;28.00
20289;BMP180;10303;51.960;8.372;2023-07-13T13:16:39;100546.00;;;27.90
20289;BMP180;10303;51.960;8.372;2023-07-13T13:19:14;100554.00;;;27.80
20289;BMP180;10303;51.960;8.372;2023-07-13T13:21:43;100552.00;;;27.80
20289;BMP180;10303;51.960;8.372;2023-07-13T13:24:16;100557.00;;;27.70
20289;BMP180;10303;51.960;8.372;2023-07-13T13:26:43;100542.00;;;27.70
20289;BMP180;10303;51.960;8.372;2023-07-13T13:29:18;100554.00;;;27.70
20289;BMP180;10303;51.960;8.372;2023-07-13T13:31:45;100566.00;;;27.70
20289;BMP180;10303;51.960;8.372;2023-07-13T13:34:14;100583.00;;;27.60
20289;BMP180;10303;51.960;8.372;2023-07-13T13:36:42;100574.00;;;27.50
20289;BMP180;10303;51.960;8.372;2023-07-13T13:39:21;100600.00;;;27.30
20289;BMP180;10303;51.960;8.372;2023-07-13T13:41:50;100615.00;;;27.00
20289;BMP180;10303;51.960;8.372;2023-07-13T13:44:17;100614.00;;;26.70
20289;BMP180;10303;51.960;8.372;2023-07-13T13:46:53;100616.00;;;26.30
20289;BMP180;10303;51.960;8.372;2023-07-13T13:49:26;100617.00;;;26.00
20289;BMP180;10303;51.960;8.372;2023-07-13T13:51:54;100622.00;;;25.80
20289;BMP180;10303;51.960;8.372;2023-07-13T13:54:22;100622.00;;;25.60
20289;BMP180;10303;51.960;8.372;2023-07-13T13:56:51;100622.00;;;25.50
20289;BMP180;10303;51.960;8.372;2023-07-13T13:59:18;100617.00;;;25.30
20289;BMP180;10303;51.960;8.372;2023-07-13T14:01:46;100619.00;;;25.20
20289;BMP180;10303;51.960;8.372;2023-07-13T14:04:20;100637.00;;;25.10
20289;BMP180;10303;51.960;8.372;2023-07-13T14:06:47;100632.00;;;25.00
20289;BMP180;10303;51.960;8.372;2023-07-13T14:09:18;100635.00;;;24.90
20289;BMP180;10303;51.960;8.372;2023-07-13T14:11:46;100645.00;;;24.80
20289;BMP180;10303;51.960;8.372;2023-07-13T14:14:19;100655.00;;;24.70
20289;BMP180;10303;51.960;8.372;2023-07-13T14:16:47;100652.00;;;24.50
20289;BMP180;10303;51.960;8.372;2023-07-13T14:19:19;100642.00;;;24.30
20289;BMP180;10303;51.960;8.372;2023-07-13T14:21:45;100653.00;;;24.20
20289;BMP180;10303;51.960;8.372;2023-07-13T14:24:13;100650.00;;;24.10
20289;BMP180;10303;51.960;8.372;2023-07-13T14:26:41;100655.00;;;24.00
20289;BMP180;10303;51.960;8.372;2023-07-13T14:29:17;100660.00;;;23.90
20289;BMP180;10303;51.960;8.372;2023-07-13T14:31:44;100663.00;;;23.90
20289;BMP180;10303;51.960;8.372;2023-07-13T14:34:12;100655.00;;;23.90
20289;BMP180;10303;51.960;8.372;2023-07-13T14:36:45;100658.00;;;23.90
20289;BMP180;10303;51.960;8.372;2023-07-13T14:39:15;100669.00;;;23.90
20289;BMP180;10303;51.960;8.372;2023-07-13T14:41:43;100675.00;;;23.90
20289;BMP180;10303;51.960;8.372;2023-07-13T14:44:15;100685.00;;;23.80
20289;BMP180;10303;51.960;8.372;2023-07-13T14:46:43;100680.00;;;23.70